Latest Weather Observations for Rottnest Island

IDW60901

Issued at 8:05 pm WST Wednesday 1 October 2014 (issued every 10 minutes, with the page automatically refreshed every 10 minutes)

About weather observations | Map of Perth area stations | Latest observations for Perth area | Other Formats
Station Details ID: 009193 Name: ROTTNEST ISLAND Lat: -32.01 Lon: 115.50 Height: 43.1 m
Data from the previous 72 hours. | See also: Recent months at Rottnest Island
Date/Time
WST
Tmp

°C
App
Tmp
°C
Dew
Point
°C
Rel
Hum
%
Delta-T

°C
Wind Press
QNH
hPa
Press
MSL
hPa
Rain
since
9 am
mm
Dir
 
Spd
km/h
Gust
km/h
Spd
kts
Gust
kts
01/08:00pm 23.3 22.7 12.3 50 6.3 SSE 7 11 4 6 1014.5 1014.4 0.0
01/07:30pm 24.3 21.0 11.6 45 7.2 SSE 20 30 11 16 1013.8 1013.7 0.0
01/07:00pm 23.5 21.9 12.8 51 6.2 SSE 13 17 7 9 1013.6 1013.5 0.0
01/06:30pm 25.6 21.7 9.4 36 8.9 E 20 24 11 13 1013.4 1013.3 0.0
01/06:00pm 25.2 21.1 11.4 42 7.8 E 24 32 13 17 1013.2 1013.1 0.0
01/05:30pm 25.5 21.9 10.5 39 8.4 E 20 26 11 14 1012.9 1012.8 0.0
01/05:00pm 26.0 22.6 10.6 38 8.6 E 19 30 10 16 1013.1 1013.0 0.0
01/04:30pm 25.4 23.6 13.3 47 7.1 E 15 20 8 11 1013.3 1013.2 0.0
01/04:00pm 22.8 22.3 15.9 65 4.2 ESE 13 15 7 8 1014.2 1014.1 0.0
01/03:30pm 22.2 20.5 15.8 67 3.9 SE 19 24 10 13 1013.8 1013.7 0.0
01/03:00pm 21.6 20.0 16.1 71 3.3 SSE 19 22 10 12 1014.1 1014.0 0.0
01/02:30pm 24.2 22.3 14.3 54 5.9 ESE 17 22 9 12 1014.5 1014.4 0.0
01/02:00pm 25.7 23.3 12.5 44 7.6 E 17 24 9 13 1014.5 1014.4 0.0
01/01:30pm 26.5 23.7 12.5 41 8.1 E 19 30 10 16 1015.4 1015.3 0.0
01/01:00pm 26.0 23.0 10.6 38 8.6 E 17 26 9 14 1015.7 1015.6 0.0
01/12:30pm 25.4 22.1 10.8 40 8.2 E 19 26 10 14 1016.2 1016.1 0.0
01/12:00pm 25.5 22.4 11.7 42 7.9 ENE 19 28 10 15 1016.5 1016.4 0.0
01/11:30am 23.5 19.9 10.6 44 7.1 NE 20 30 11 16 1017.1 1017.0 0.0
01/11:00am 23.5 18.7 10.2 43 7.3 NE 26 35 14 19 1017.4 1017.3 0.0
01/10:30am 23.3 19.5 11.0 46 6.9 NE 22 33 12 18 1017.7 1017.6 0.0
01/10:00am 22.4 18.3 11.5 50 6.1 NE 24 32 13 17 1018.0 1017.9 0.0
01/09:30am 21.1 15.9 10.3 50 5.9 ENE 28 37 15 20 1018.2 1018.1 0.0
01/09:00am 20.0 15.8 11.0 56 4.9 ENE 24 33 13 18 1018.3 1018.2 0.0
01/08:30am 19.0 13.8 10.3 57 4.7 E 28 37 15 20 1018.4 1018.3 0.0
01/08:00am 18.8 13.9 9.8 56 4.8 ENE 26 37 14 20 1018.7 1018.6 0.0
01/07:30am 18.3 14.1 9.9 58 4.5 E 22 32 12 17 1018.6 1018.5 0.0
01/07:00am 17.6 13.1 10.0 61 4.0 E 24 30 13 16 1018.7 1018.6 0.0
01/06:30am 17.0 12.8 9.9 63 3.7 E 22 32 12 17 1018.6 1018.5 0.0
01/06:00am 16.8 12.7 10.0 64 3.6 E 22 33 12 18 1018.6 1018.5 0.0
01/05:30am 16.2 12.5 10.1 67 3.2 E 20 28 11 15 1018.5 1018.4 0.0
01/05:00am 15.7 12.7 10.5 71 2.7 ESE 17 20 9 11 1018.6 1018.5 0.0
01/04:30am 15.8 12.7 10.3 70 2.9 E 17 22 9 12 1018.7 1018.6 0.0
01/04:00am 16.4 12.8 10.5 68 3.1 ESE 20 30 11 16 1018.8 1018.7 0.0
01/03:30am 16.7 12.1 11.0 69 3.1 SE 26 33 14 18 1018.4 1018.3 0.0
01/03:00am 16.9 11.7 11.6 71 2.9 SE 30 37 16 20 1018.0 1017.9 0.0
01/02:30am 16.9 12.5 11.8 72 2.8 SE 26 32 14 17 1018.4 1018.3 0.0
01/02:00am 16.6 12.6 11.9 74 2.6 SE 24 30 13 16 1018.8 1018.7 0.0
01/01:30am 16.8 12.5 12.1 74 2.6 SE 26 33 14 18 1019.2 1019.1 0.0
01/01:00am 16.9 12.2 12.0 73 2.7 SE 28 33 15 18 1019.5 1019.5 0.0
01/12:30am 17.1 12.4 12.0 72 2.8 SE 28 32 15 17 1019.9 1019.9 0.0
01/12:00am 17.4 12.3 11.9 70 3.0 SE 30 35 16 19 1020.1 1020.1 0.0
 
Date/Time
WST
Tmp

°C
App
Tmp
°C
Dew
Point
°C
Rel
Hum
%
Delta-T

°C
Wind Press
QNH
hPa
Press
MSL
hPa
Rain
since
9 am
mm
Dir
 
Spd
km/h
Gust
km/h
Spd
kts
Gust
kts
30/11:30pm 17.7 12.5 11.7 68 3.3 SE 30 35 16 19 1020.4 1020.4 0.0
30/11:00pm 18.0 13.5 12.5 70 3.1 SE 28 33 15 18 1020.7 1020.7 0.0
30/10:30pm 18.1 14.5 13.0 72 2.9 SE 24 30 13 16 1020.9 1020.9 0.0
30/10:00pm 18.0 15.9 13.7 76 2.4 SE 17 20 9 11 1021.2 1021.2 0.0
30/09:30pm 18.2 15.8 13.7 75 2.6 SE 19 22 10 12 1021.2 1021.2 0.0
30/09:00pm 18.2 16.0 14.3 78 2.2 SSE 19 24 10 13 1021.4 1021.4 0.0
30/08:30pm 18.1 15.1 14.8 81 1.9 SSE 24 28 13 15 1021.4 1021.4 0.0
30/08:00pm 17.9 13.9 14.2 79 2.1 S 28 33 15 18 1021.2 1021.2 0.0
30/07:30pm 17.7 13.3 14.0 79 2.1 S 30 35 16 19 1020.9 1020.9 0.0
30/07:00pm 17.5 12.5 13.4 77 2.3 S 32 37 17 20 1020.8 1020.8 0.0
30/06:30pm 17.1 12.7 13.0 77 2.3 S 28 39 15 21 1020.5 1020.5 0.0
30/06:00pm 17.2 12.1 13.1 77 2.3 S 32 39 17 21 1020.3 1020.3 0.0
30/05:30pm 17.4 12.2 12.9 75 2.5 S 32 37 17 20 1020.4 1020.4 0.0
30/05:00pm 17.5 12.2 12.4 72 2.8 S 32 37 17 20 1020.4 1020.4 0.0
30/04:30pm 17.9 12.5 12.1 69 3.2 S 32 37 17 20 1020.4 1020.4 0.0
30/04:00pm 18.1 12.6 11.9 67 3.4 S 32 37 17 20 1020.6 1020.6 0.0
30/03:30pm 18.2 13.4 11.5 65 3.7 S 28 33 15 18 1020.6 1020.6 0.0
30/03:00pm 17.7 12.7 10.8 64 3.7 S 28 32 15 17 1020.6 1020.6 0.0
30/02:30pm 17.6 13.3 10.7 64 3.7 S 24 30 13 16 1020.9 1020.9 0.0
30/02:00pm 17.5 13.1 10.4 63 3.8 S 24 28 13 15 1021.1 1021.1 0.0
30/01:30pm 18.5 15.0 10.8 61 4.2 S 20 26 11 14 1021.4 1021.4 0.0
30/01:00pm 17.9 14.6 9.5 58 4.4 S 17 22 9 12 1021.9 1021.9 0.0
30/12:30pm 17.7 14.4 9.6 59 4.3 SSE 17 20 9 11 1022.3 1022.3 0.0
30/12:00pm 17.0 13.7 9.4 61 4.0 S 17 24 9 13 1022.6 1022.6 0.0
30/11:30am 17.8 15.7 9.7 59 4.3 E 11 15 6 8 1023.1 1023.1 0.0
30/11:00am 16.9 14.0 8.3 57 4.4 E 13 20 7 11 1023.3 1023.3 0.0
30/10:30am 16.9 14.2 8.8 59 4.2 ESE 13 20 7 11 1023.4 1023.4 0.0
30/10:00am 16.2 12.7 8.7 61 3.8 ESE 17 26 9 14 1023.5 1023.5 0.0
30/09:30am 15.9 11.8 8.6 62 3.7 SE 20 26 11 14 1023.4 1023.4 0.0
30/09:00am 16.5 12.6 8.7 60 4.0 ESE 19 28 10 15 1023.3 1023.3 0.0
30/08:30am 16.1 12.2 8.8 62 3.7 ESE 19 28 10 15 1023.1 1023.1 0.0
30/08:00am 15.8 12.0 9.2 65 3.4 ESE 19 30 10 16 1023.0 1023.0 0.0
30/07:30am 15.6 12.1 10.2 70 2.8 ESE 19 28 10 15 1022.8 1022.8 0.0
30/07:00am 15.3 12.1 10.1 71 2.7 ESE 17 24 9 13 1022.6 1022.6 0.0
30/06:30am 15.2 12.1 10.2 72 2.6 ESE 17 24 9 13 1022.3 1022.3 0.0
30/06:00am 15.1 11.6 10.3 73 2.5 SE 19 28 10 15 1021.9 1021.9 0.0
30/05:30am 15.4 9.8 10.2 71 2.7 SE 30 35 16 19 1021.6 1021.6 0.0
30/05:00am 15.6 10.7 11.2 75 2.4 SE 28 35 15 19 1021.3 1021.3 0.0
30/04:30am 15.9 10.4 11.9 77 2.2 SSE 32 39 17 21 1021.1 1021.1 0.0
30/04:00am 16.1 12.9 8.6 61 3.8 S 15 26 8 14 1020.9 1020.9 0.0
30/03:30am 16.1 11.6 8.6 61 3.8 S 22 28 12 15 1020.8 1020.8 0.0
30/03:00am 16.1 12.9 8.6 61 3.8 S 15 20 8 11 1020.6 1020.6 0.0
30/02:30am 16.2 11.7 8.7 61 3.8 SW 22 28 12 15 1020.5 1020.5 0.0
30/02:00am 16.6 12.3 9.3 62 3.8 S 22 28 12 15 1020.5 1020.5 0.0
30/01:30am 16.6 12.7 9.3 62 3.8 S 20 28 11 15 1020.4 1020.4 0.0
30/01:00am 16.1 12.2 8.8 62 3.7 SSW 19 26 10 14 1020.5 1020.5 0.0
30/12:30am 16.5 11.1 8.2 58 4.2 S 26 33 14 18 1020.5 1020.5 0.0
30/12:00am 16.6 12.5 8.6 59 4.1 SSW 20 28 11 15 1020.7 1020.7 0.0
 
Date/Time
WST
Tmp

°C
App
Tmp
°C
Dew
Point
°C
Rel
Hum
%
Delta-T

°C
Wind Press
QNH
hPa
Press
MSL
hPa
Rain
since
9 am
mm
Dir
 
Spd
km/h
Gust
km/h
Spd
kts
Gust
kts
29/11:30pm 16.4 12.2 8.4 59 4.1 SSW 20 26 11 14 1020.8 1020.8 0.0
29/11:00pm 16.5 12.2 7.7 56 4.4 SSW 20 26 11 14 1020.8 1020.8 0.0
29/10:30pm 16.6 12.3 9.3 62 3.8 S 22 28 12 15 1021.0 1021.0 0.0
29/10:00pm 16.7 11.3 8.1 57 4.4 SSW 26 33 14 18 1021.2 1021.2 0.0
29/09:30pm 16.8 11.7 7.7 55 4.6 SSW 24 32 13 17 1021.2 1021.2 0.0
29/09:00pm 17.0 12.0 9.7 62 3.8 S 26 35 14 19 1021.1 1021.1 0.0
29/08:30pm 17.2 11.8 9.4 60 4.1 SSW 28 35 15 19 1020.9 1020.9 0.0
29/08:00pm 16.9 12.8 10.1 64 3.6 SSW 22 30 12 16 1020.5 1020.5 0.0
29/07:30pm 16.8 11.8 11.1 69 3.1 SSW 28 33 15 18 1020.1 1020.1 0.0
29/07:00pm 16.7 12.3 10.3 66 3.4 SSW 24 28 13 15 1019.5 1019.5 0.0
29/06:30pm 16.9 12.6 10.7 67 3.3 SSW 24 30 13 16 1019.3 1019.3 0.0
29/06:00pm 17.0 12.8 11.1 68 3.2 SSW 24 28 13 15 1019.2 1019.1 0.0
29/05:30pm 17.0 12.9 11.5 70 3.0 SSW 24 30 13 16 1019.0 1018.9 0.0
29/05:00pm 17.1 13.1 11.8 71 2.9 SSW 24 32 13 17 1018.7 1018.6 0.0
29/04:30pm 17.6 13.4 12.5 72 2.8 SW 26 35 14 19 1018.3 1018.2 0.0
29/04:00pm 17.0 12.8 12.5 75 2.5 SSW 26 35 14 19 1018.1 1018.0 0.0
29/03:30pm 18.3 15.4 13.0 71 3.0 SW 20 30 11 16 1017.9 1017.8 0.0
29/03:00pm 17.8 15.2 13.3 75 2.5 WSW 19 26 10 14 1017.7 1017.6 0.0
29/02:30pm 18.7 16.1 13.3 71 3.1 SW 19 24 10 13 1017.4 1017.3 0.0
29/02:00pm 18.1 15.4 13.4 74 2.7 SW 20 26 11 14 1017.5 1017.4 0.0
29/01:30pm 17.8 14.8 13.7 77 2.3 SW 22 28 12 15 1017.8 1017.7 0.0
29/01:00pm 18.3 14.7 14.2 77 2.4 SW 26 33 14 18 1017.8 1017.7 0.0
29/12:30pm 18.9 15.4 13.3 70 3.2 W 24 30 13 16 1017.8 1017.7 0.0
29/12:00pm 19.5 15.9 13.2 67 3.6 W 24 32 13 17 1017.9 1017.8 0.0
29/11:30am 18.7 14.3 12.9 69 3.3 SW 28 33 15 18 1018.1 1018.0 0.0
29/11:00am 19.5 16.2 13.9 70 3.2 W 24 32 13 17 1017.9 1017.8 0.0
29/10:30am 18.8 14.5 12.1 65 3.7 W 26 32 14 17 1018.0 1017.9 0.0
29/10:00am 18.3 14.8 12.1 67 3.4 W 22 30 12 16 1017.7 1017.6 0.0
29/09:30am 18.1 14.1 11.7 66 3.5 W 24 33 13 18 1017.7 1017.6 0.0
29/09:00am 16.9 13.7 13.2 79 2.1 W 22 35 12 19 1017.5 1017.4 2.4
29/08:30am 17.6 14.8 13.1 75 2.5 W 20 24 11 13 1017.2 1017.1 2.2
29/08:00am 16.6 13.7 12.9 79 2.1 W 20 28 11 15 1017.0 1016.9 2.2
29/07:30am 16.7 14.4 14.0 84 1.5 WNW 19 22 10 12 1016.7 1016.6 2.2
29/07:00am 15.7 13.0 13.0 84 1.5 W 19 26 10 14 1016.2 1016.1 2.2
29/06:30am 15.2 13.5 13.6 90 0.9 WSW 15 17 8 9 1016.1 1016.0 2.2
29/06:00am 15.4 12.6 12.7 84 1.5 WNW 19 24 10 13 1015.7 1015.6 1.6
29/05:30am 14.7 11.9 12.7 88 1.1 NW 19 24 10 13 1015.5 1015.4 1.6
29/05:00am 15.8 11.8 12.9 83 1.6 WNW 26 30 14 16 1015.3 1015.2 1.6
29/04:30am 15.4 10.6 12.9 85 1.4 WNW 30 37 16 20 1015.2 1015.1 1.6
29/04:00am 16.0 12.8 13.1 83 1.6 W 22 28 12 15 1015.2 1015.1 1.2
29/03:30am 15.6 13.4 13.3 86 1.3 WNW 17 22 9 12 1015.3 1015.2 1.0
29/03:00am 14.9 8.8 12.9 88 1.1 WNW 37 46 20 25 1015.6 1015.5 1.0
29/02:48am 15.8 11.1 13.1 84 1.5 W 30 50 16 27 1015.6 1015.5 1.0
29/02:30am 14.9 11.2 12.6 86 1.3 WNW 24 37 13 20 1015.7 1015.6 1.0
29/02:00am 16.5 11.5 11.0 70 2.9 WNW 28 37 15 20 1015.6 1015.5 0.8
29/01:30am 16.5 11.6 11.2 71 2.9 WNW 28 35 15 19 1015.7 1015.6 0.8
29/01:00am 16.6 12.2 11.7 73 2.7 WNW 26 32 14 17 1015.9 1015.8 0.8
29/12:30am 16.6 12.1 11.5 72 2.8 WNW 26 33 14 18 1016.2 1016.1 0.8
29/12:00am 16.5 11.5 11.0 70 2.9 W 28 35 15 19 1016.3 1016.2 0.8
 
Date/Time
WST
Tmp

°C
App
Tmp
°C
Dew
Point
°C
Rel
Hum
%
Delta-T

°C
Wind Press
QNH
hPa
Press
MSL
hPa
Rain
since
9 am
mm
Dir
 
Spd
km/h
Gust
km/h
Spd
kts
Gust
kts
28/11:30pm 16.5 12.7 12.3 76 2.3 WNW 24 30 13 16 1016.3 1016.2 0.8
28/11:00pm 16.5 12.2 11.9 74 2.5 WNW 26 35 14 19 1016.5 1016.4 0.8
28/10:30pm 16.2 12.2 11.8 75 2.4 WNW 24 32 13 17 1016.6 1016.5 0.8
28/10:00pm 16.4 11.5 11.3 72 2.7 WNW 28 35 15 19 1017.0 1016.9 0.8
28/09:30pm 16.3 11.5 11.5 73 2.6 WNW 28 35 15 19 1017.1 1017.0 0.8
28/09:00pm 16.3 12.0 12.1 76 2.3 WNW 26 32 14 17 1017.4 1017.3 0.8
28/08:30pm 16.0 11.6 11.8 76 2.3 WNW 26 35 14 19 1017.4 1017.3 0.8

Latest Capital City Observations: Canberra | Sydney | Melbourne | Brisbane | Adelaide | Perth | Hobart | Darwin

Other Formats:

Comma delimited format used in spreadsheet applications
http://www.bom.gov.au/fwo/IDW60901/IDW60901.94602.axf

JavaScript Object Notation format (JSON) in row-major order
http://www.bom.gov.au/fwo/IDW60901/IDW60901.94602.json